createdAt,value
2018-11-07T00:00:00.108Z,95222.00
2018-11-07T00:00:38.023Z,95218.00
2018-11-07T00:01:15.610Z,95219.00
2018-11-07T00:01:53.272Z,95223.00
2018-11-07T00:02:30.856Z,95218.00
2018-11-07T00:03:08.431Z,95216.00
2018-11-07T00:03:46.159Z,95218.00
2018-11-07T00:04:23.634Z,95215.00
2018-11-07T00:05:01.320Z,95214.00
2018-11-07T00:05:38.970Z,95214.00
2018-11-07T00:06:16.483Z,95217.00
2018-11-07T00:06:54.260Z,95219.00
2018-11-07T00:07:31.950Z,95213.00
2018-11-07T00:08:09.813Z,95218.00
2018-11-07T00:08:47.521Z,95219.00
2018-11-07T00:09:25.182Z,95219.00
2018-11-07T00:10:02.749Z,95221.00
2018-11-07T00:10:40.506Z,95223.00
2018-11-07T00:11:18.154Z,95220.00
2018-11-07T00:11:55.738Z,95224.00
2018-11-07T00:12:33.413Z,95220.00
2018-11-07T00:13:11.098Z,95224.00
2018-11-07T00:13:48.996Z,95231.00
2018-11-07T00:14:26.570Z,95226.00
2018-11-07T00:15:04.033Z,95228.00
2018-11-07T00:15:41.846Z,95229.00
2018-11-07T00:16:19.541Z,95234.00
2018-11-07T00:16:57.169Z,95232.00
2018-11-07T00:17:34.674Z,95231.00
2018-11-07T00:18:12.200Z,95230.00
2018-11-07T00:18:49.751Z,95234.00
2018-11-07T00:19:27.456Z,95236.00
2018-11-07T00:20:04.947Z,95229.00
2018-11-07T00:20:42.402Z,95230.00
2018-11-07T00:21:20.062Z,95224.00
2018-11-07T00:21:57.641Z,95223.00
2018-11-07T00:22:35.342Z,95228.00
2018-11-07T00:23:12.945Z,95227.00
2018-11-07T00:23:50.667Z,95223.00
2018-11-07T00:24:28.151Z,95222.00
2018-11-07T00:25:05.801Z,95220.00
2018-11-07T00:25:43.285Z,95223.00
2018-11-07T00:26:20.821Z,95218.00
2018-11-07T00:26:58.301Z,95216.00
2018-11-07T00:27:35.758Z,95217.00
2018-11-07T00:28:13.264Z,95219.00
2018-11-07T00:28:50.975Z,95218.00
2018-11-07T00:29:28.589Z,95215.00
2018-11-07T00:30:06.348Z,95220.00
2018-11-07T00:30:43.863Z,95218.00
2018-11-07T00:31:21.402Z,95215.00
2018-11-07T00:31:59.187Z,95216.00
2018-11-07T00:32:37.075Z,95217.00
2018-11-07T00:33:14.853Z,95219.00
2018-11-07T00:33:52.363Z,95212.00
2018-11-07T00:34:30.025Z,95213.00
2018-11-07T00:35:07.511Z,95215.00
2018-11-07T00:35:45.147Z,95211.00
2018-11-07T00:36:23.641Z,95209.00
2018-11-07T00:37:01.561Z,95212.00
2018-11-07T00:37:39.283Z,95206.00
2018-11-07T00:38:16.870Z,95208.00
2018-11-07T00:38:54.562Z,95210.00
2018-11-07T00:39:32.107Z,95208.00
2018-11-07T00:40:09.913Z,95207.00
2018-11-07T00:40:47.670Z,95206.00
2018-11-07T00:41:25.304Z,95207.00
2018-11-07T00:42:46.083Z,95209.00
2018-11-07T00:43:23.757Z,95209.00
2018-11-07T00:44:01.494Z,95209.00
2018-11-07T00:44:39.043Z,95210.00
2018-11-07T00:45:16.586Z,95203.00
2018-11-07T00:45:54.380Z,95208.00
2018-11-07T00:46:32.098Z,95211.00
2018-11-07T00:47:09.844Z,95211.00
2018-11-07T00:47:47.527Z,95205.00
2018-11-07T00:48:25.095Z,95206.00
2018-11-07T00:49:02.602Z,95206.00
2018-11-07T00:49:40.230Z,95207.00
2018-11-07T00:50:17.902Z,95208.00
2018-11-07T00:50:55.669Z,95210.00
2018-11-07T00:51:33.257Z,95214.00
2018-11-07T00:52:10.759Z,95213.00
2018-11-07T00:52:48.328Z,95219.00
2018-11-07T00:53:25.968Z,95214.00
2018-11-07T00:54:03.621Z,95215.00
2018-11-07T00:54:41.213Z,95221.00
2018-11-07T00:55:18.695Z,95218.00
2018-11-07T00:55:56.304Z,95215.00
2018-11-07T00:56:34.097Z,95219.00
2018-11-07T00:57:11.574Z,95215.00
2018-11-07T00:57:49.030Z,95213.00
2018-11-07T00:58:26.615Z,95215.00
2018-11-07T00:59:04.215Z,95211.00
2018-11-07T00:59:41.772Z,95212.00
2018-11-07T01:00:19.424Z,95215.00
2018-11-07T01:00:56.921Z,95212.00
2018-11-07T01:01:34.551Z,95210.00
2018-11-07T01:02:12.007Z,95210.00
2018-11-07T01:02:49.630Z,95209.00
2018-11-07T01:03:27.380Z,95207.00
2018-11-07T01:04:05.091Z,95210.00
2018-11-07T01:04:42.737Z,95209.00
2018-11-07T01:05:20.197Z,95208.00
2018-11-07T01:05:57.714Z,95211.00
2018-11-07T01:06:35.477Z,95210.00
2018-11-07T01:07:13.202Z,95209.00
2018-11-07T01:07:50.945Z,95214.00
2018-11-07T01:08:28.539Z,95211.00
2018-11-07T01:09:06.126Z,95213.00
2018-11-07T01:09:43.886Z,95217.00
2018-11-07T01:10:21.378Z,95216.00
2018-11-07T01:10:59.022Z,95221.00
2018-11-07T01:11:36.575Z,95222.00
2018-11-07T01:12:14.178Z,95225.00
2018-11-07T01:12:51.801Z,95217.00
2018-11-07T01:13:29.346Z,95218.00
2018-11-07T01:14:06.825Z,95214.00
2018-11-07T01:14:44.476Z,95217.00
2018-11-07T01:15:22.078Z,95218.00
2018-11-07T01:15:59.662Z,95216.00
2018-11-07T01:16:37.259Z,95215.00
2018-11-07T01:17:14.779Z,95214.00
2018-11-07T01:17:52.373Z,95217.00
2018-11-07T01:18:29.772Z,95216.00
2018-11-07T01:19:07.410Z,95213.00
2018-11-07T01:19:44.928Z,95214.00
2018-11-07T01:20:22.573Z,95215.00
2018-11-07T01:21:00.045Z,95217.00
2018-11-07T01:22:21.498Z,95217.00
2018-11-07T01:22:58.947Z,95216.00
2018-11-07T01:23:36.363Z,95221.00
2018-11-07T01:24:13.933Z,95214.00
2018-11-07T01:24:51.524Z,95216.00
2018-11-07T01:25:29.041Z,95219.00
2018-11-07T01:26:06.556Z,95212.00
2018-11-07T01:26:44.258Z,95215.00
2018-11-07T01:27:21.885Z,95217.00
2018-11-07T01:27:59.462Z,95215.00
2018-11-07T01:28:37.066Z,95221.00
2018-11-07T01:29:14.755Z,95213.00
2018-11-07T01:29:52.527Z,95211.00
2018-11-07T01:30:30.119Z,95215.00
2018-11-07T01:31:07.662Z,95208.00
2018-11-07T01:31:45.181Z,95213.00
2018-11-07T01:32:22.785Z,95206.00
2018-11-07T01:33:00.341Z,95207.00
2018-11-07T01:33:37.755Z,95212.00
2018-11-07T01:34:15.388Z,95218.00
2018-11-07T01:34:53.017Z,95211.00
2018-11-07T01:35:30.562Z,95209.00
2018-11-07T01:36:08.065Z,95210.00
2018-11-07T01:36:45.779Z,95208.00
2018-11-07T01:37:23.398Z,95208.00
2018-11-07T01:38:00.932Z,95216.00
2018-11-07T01:38:38.509Z,95204.00
2018-11-07T01:39:16.173Z,95207.00
2018-11-07T01:39:53.782Z,95206.00
2018-11-07T01:40:31.660Z,95198.00
2018-11-07T01:41:09.400Z,95200.00
2018-11-07T01:41:46.931Z,95192.00
2018-11-07T01:42:24.426Z,95197.00
2018-11-07T01:43:02.073Z,95198.00
2018-11-07T01:43:39.560Z,95195.00
2018-11-07T01:44:17.166Z,95194.00
2018-11-07T01:44:54.972Z,95193.00
2018-11-07T01:45:32.457Z,95192.00
2018-11-07T01:46:09.979Z,95191.00
2018-11-07T01:46:47.476Z,95195.00
2018-11-07T01:47:25.122Z,95200.00
2018-11-07T01:48:02.696Z,95194.00
2018-11-07T01:48:40.307Z,95191.00
2018-11-07T01:49:17.955Z,95194.00
2018-11-07T01:49:55.739Z,95192.00
2018-11-07T01:50:33.314Z,95188.00
2018-11-07T01:51:11.059Z,95189.00
2018-11-07T01:51:48.491Z,95191.00
2018-11-07T01:52:26.027Z,95187.00
2018-11-07T01:53:03.906Z,95182.00
2018-11-07T01:53:41.425Z,95188.00
2018-11-07T01:54:19.123Z,95188.00
2018-11-07T01:54:56.819Z,95183.00
2018-11-07T01:55:34.435Z,95182.00
2018-11-07T01:56:12.215Z,95188.00
2018-11-07T01:56:49.924Z,95186.00
2018-11-07T01:57:27.486Z,95187.00
2018-11-07T01:58:04.966Z,95183.00
2018-11-07T01:58:42.855Z,95184.00
2018-11-07T01:59:20.987Z,95184.00
2018-11-07T01:59:58.498Z,95183.00
2018-11-07T02:00:36.102Z,95185.00
2018-11-07T02:01:13.739Z,95180.00
2018-11-07T02:01:51.454Z,95182.00
2018-11-07T02:02:29.055Z,95182.00
2018-11-07T02:03:06.707Z,95182.00
2018-11-07T02:03:44.168Z,95178.00
2018-11-07T02:04:21.870Z,95175.00
2018-11-07T02:04:59.373Z,95174.00
2018-11-07T02:05:36.987Z,95176.00
2018-11-07T02:06:14.657Z,95176.00
2018-11-07T02:06:52.144Z,95174.00
2018-11-07T02:07:29.758Z,95176.00
2018-11-07T02:08:07.397Z,95174.00
2018-11-07T02:08:45.014Z,95171.00
2018-11-07T02:09:22.733Z,95172.00
2018-11-07T02:10:00.236Z,95176.00
2018-11-07T02:10:37.882Z,95170.00
2018-11-07T02:11:15.708Z,95169.00
2018-11-07T02:11:53.306Z,95163.00
2018-11-07T02:12:30.823Z,95167.00
2018-11-07T02:13:08.464Z,95169.00
2018-11-07T02:13:46.076Z,95166.00
2018-11-07T02:14:23.660Z,95169.00
2018-11-07T02:15:01.282Z,95165.00
2018-11-07T02:15:38.979Z,95171.00
2018-11-07T02:16:16.503Z,95170.00
2018-11-07T02:16:54.144Z,95175.00
2018-11-07T02:17:32.014Z,95168.00
2018-11-07T02:18:09.556Z,95167.00
2018-11-07T02:18:47.121Z,95172.00
2018-11-07T02:19:24.845Z,95168.00
2018-11-07T02:20:02.907Z,95173.00
2018-11-07T02:20:40.492Z,95174.00
2018-11-07T02:21:18.102Z,95173.00
2018-11-07T02:21:55.570Z,95174.00
2018-11-07T02:22:33.029Z,95173.00
2018-11-07T02:23:10.570Z,95176.00
2018-11-07T02:23:48.298Z,95175.00
2018-11-07T02:24:26.018Z,95176.00
2018-11-07T02:25:03.932Z,95175.00
2018-11-07T02:25:41.427Z,95175.00
2018-11-07T02:26:19.134Z,95180.00
2018-11-07T02:26:56.628Z,95179.00
2018-11-07T02:27:34.426Z,95179.00
2018-11-07T02:28:12.316Z,95179.00
2018-11-07T02:28:49.841Z,95177.00
2018-11-07T02:29:27.333Z,95178.00
2018-11-07T02:30:05.055Z,95180.00
2018-11-07T02:30:42.538Z,95180.00
2018-11-07T02:31:20.322Z,95174.00
2018-11-07T02:31:57.950Z,95172.00
2018-11-07T02:32:35.594Z,95178.00
2018-11-07T02:33:13.176Z,95175.00
2018-11-07T02:33:50.739Z,95181.00
2018-11-07T02:34:28.313Z,95179.00
2018-11-07T02:35:06.254Z,95176.00
2018-11-07T02:35:44.040Z,95179.00
2018-11-07T02:36:21.723Z,95177.00
2018-11-07T02:36:59.278Z,95175.00
2018-11-07T02:37:36.914Z,95183.00
2018-11-07T02:38:14.396Z,95181.00
2018-11-07T02:38:51.996Z,95175.00
2018-11-07T02:39:29.697Z,95176.00
2018-11-07T02:40:07.421Z,95175.00
2018-11-07T02:40:45.131Z,95175.00
2018-11-07T02:41:22.614Z,95179.00
2018-11-07T02:42:00.375Z,95173.00
2018-11-07T02:42:37.909Z,95174.00
2018-11-07T02:43:15.490Z,95176.00
2018-11-07T02:43:53.319Z,95173.00
2018-11-07T02:44:30.919Z,95173.00
2018-11-07T02:45:08.742Z,95176.00
2018-11-07T02:45:46.577Z,95173.00
2018-11-07T02:46:24.326Z,95173.00
2018-11-07T02:47:01.947Z,95171.00
2018-11-07T02:47:39.581Z,95172.00
2018-11-07T02:48:17.160Z,95169.00
2018-11-07T02:48:54.661Z,95168.00
2018-11-07T02:49:32.322Z,95162.00
2018-11-07T02:50:09.887Z,95170.00
2018-11-07T02:50:47.535Z,95169.00
2018-11-07T02:51:24.996Z,95160.00
2018-11-07T02:52:02.678Z,95165.00
2018-11-07T02:52:40.352Z,95173.00
2018-11-07T02:53:17.857Z,95162.00
2018-11-07T02:53:55.362Z,95167.00
2018-11-07T02:54:33.140Z,95166.00
2018-11-07T02:55:10.764Z,95164.00
2018-11-07T02:55:48.329Z,95162.00
2018-11-07T02:56:25.977Z,95166.00
2018-11-07T02:57:03.645Z,95159.00
2018-11-07T02:57:41.146Z,95160.00
2018-11-07T02:58:18.838Z,95158.00
2018-11-07T02:58:56.518Z,95155.00
2018-11-07T02:59:34.061Z,95159.00
2018-11-07T03:00:11.773Z,95160.00
2018-11-07T03:00:49.516Z,95157.00
2018-11-07T03:01:27.207Z,95160.00
2018-11-07T03:02:04.816Z,95163.00
2018-11-07T03:02:42.506Z,95168.00
2018-11-07T03:03:20.303Z,95163.00
2018-11-07T03:03:57.801Z,95159.00
2018-11-07T03:04:35.382Z,95160.00
2018-11-07T03:05:13.071Z,95159.00
2018-11-07T03:05:50.663Z,95155.00
2018-11-07T03:06:28.205Z,95164.00
2018-11-07T03:07:05.765Z,95158.00
2018-11-07T03:07:43.383Z,95157.00
2018-11-07T03:08:21.012Z,95156.00
2018-11-07T03:08:58.796Z,95157.00
2018-11-07T03:09:36.120Z,95159.00
2018-11-07T03:10:13.841Z,95160.00
2018-11-07T03:10:51.607Z,95151.00
2018-11-07T03:11:29.128Z,95155.00
2018-11-07T03:12:06.646Z,95152.00
2018-11-07T03:12:44.466Z,95148.00
2018-11-07T03:13:22.173Z,95148.00
2018-11-07T03:13:59.925Z,95150.00
2018-11-07T03:14:37.550Z,95154.00
2018-11-07T03:15:15.058Z,95148.00
2018-11-07T03:15:52.909Z,95152.00
2018-11-07T03:16:30.690Z,95148.00
2018-11-07T03:17:08.457Z,95143.00
2018-11-07T03:17:45.916Z,95148.00
2018-11-07T03:18:23.652Z,95148.00
2018-11-07T03:19:01.348Z,95147.00
2018-11-07T03:19:38.845Z,95140.00
2018-11-07T03:20:16.407Z,95145.00
2018-11-07T03:20:54.069Z,95138.00
2018-11-07T03:21:31.546Z,95141.00
2018-11-07T03:22:09.170Z,95142.00
2018-11-07T03:22:47.018Z,95137.00
2018-11-07T03:23:24.699Z,95138.00
2018-11-07T03:24:02.135Z,95138.00
2018-11-07T03:24:39.735Z,95143.00
2018-11-07T03:25:17.376Z,95137.00
2018-11-07T03:25:54.882Z,95138.00
2018-11-07T03:26:32.461Z,95140.00
2018-11-07T03:27:10.193Z,95140.00
2018-11-07T03:27:47.782Z,95140.00
2018-11-07T03:28:25.386Z,95143.00
2018-11-07T03:29:02.968Z,95140.00
2018-11-07T03:29:40.510Z,95136.00
2018-11-07T03:30:18.277Z,95140.00
2018-11-07T03:30:56.191Z,95141.00
2018-11-07T03:31:33.806Z,95136.00
2018-11-07T03:32:11.244Z,95138.00
2018-11-07T03:32:48.856Z,95134.00
2018-11-07T03:33:26.497Z,95138.00
2018-11-07T03:34:04.201Z,95136.00
2018-11-07T03:34:41.986Z,95138.00
2018-11-07T03:35:19.906Z,95137.00
2018-11-07T03:35:57.688Z,95142.00
2018-11-07T03:36:35.355Z,95143.00
2018-11-07T03:37:13.004Z,95141.00
2018-11-07T03:37:50.706Z,95143.00
2018-11-07T03:38:28.371Z,95137.00
2018-11-07T03:39:06.183Z,95136.00
2018-11-07T03:39:43.760Z,95130.00
2018-11-07T03:40:21.375Z,95134.00
2018-11-07T03:40:59.054Z,95133.00
2018-11-07T03:41:36.715Z,95135.00
2018-11-07T03:42:14.430Z,95129.00
2018-11-07T03:42:52.012Z,95126.00
2018-11-07T03:43:29.516Z,95131.00
2018-11-07T03:44:07.171Z,95130.00
2018-11-07T03:44:44.617Z,95137.00
2018-11-07T03:45:22.335Z,95133.00
2018-11-07T03:45:59.885Z,95140.00
2018-11-07T03:46:37.436Z,95143.00
2018-11-07T03:47:15.039Z,95139.00
2018-11-07T03:47:52.557Z,95141.00
2018-11-07T03:48:30.141Z,95139.00
2018-11-07T03:49:07.634Z,95139.00
2018-11-07T03:49:45.276Z,95141.00
2018-11-07T03:50:23.119Z,95145.00
2018-11-07T03:51:00.751Z,95140.00
2018-11-07T03:51:38.297Z,95143.00
2018-11-07T03:52:59.742Z,95147.00
2018-11-07T03:53:37.301Z,95150.00
2018-11-07T03:54:15.062Z,95146.00
2018-11-07T03:54:52.533Z,95144.00
2018-11-07T03:55:30.396Z,95150.00
2018-11-07T03:56:08.017Z,95145.00
2018-11-07T03:56:45.738Z,95147.00
2018-11-07T03:57:23.167Z,95143.00
2018-11-07T03:58:00.680Z,95145.00
2018-11-07T03:58:38.437Z,95146.00
2018-11-07T03:59:16.156Z,95137.00
2018-11-07T03:59:53.795Z,95137.00
2018-11-07T04:00:31.447Z,95131.00
2018-11-07T04:01:09.128Z,95131.00
2018-11-07T04:01:46.805Z,95126.00
2018-11-07T04:02:24.489Z,95129.00
2018-11-07T04:03:02.117Z,95126.00
2018-11-07T04:03:39.795Z,95126.00
2018-11-07T04:04:17.408Z,95126.00
2018-11-07T04:04:54.858Z,95126.00
2018-11-07T04:05:32.488Z,95122.00
2018-11-07T04:06:10.088Z,95128.00
2018-11-07T04:06:47.878Z,95129.00
2018-11-07T04:07:25.545Z,95129.00
2018-11-07T04:08:03.150Z,95128.00
2018-11-07T04:08:40.806Z,95130.00
2018-11-07T04:09:18.369Z,95132.00
2018-11-07T04:09:55.952Z,95133.00
2018-11-07T04:10:33.541Z,95132.00
2018-11-07T04:11:11.248Z,95134.00
2018-11-07T04:11:48.895Z,95128.00
2018-11-07T04:12:26.680Z,95130.00
2018-11-07T04:13:04.337Z,95130.00
2018-11-07T04:13:42.225Z,95127.00
2018-11-07T04:14:19.871Z,95130.00
2018-11-07T04:14:57.382Z,95126.00
2018-11-07T04:15:35.028Z,95126.00
2018-11-07T04:16:12.558Z,95129.00
2018-11-07T04:16:50.206Z,95130.00
2018-11-07T04:17:27.865Z,95132.00
2018-11-07T04:18:05.390Z,95133.00
2018-11-07T04:18:43.084Z,95133.00
2018-11-07T04:19:20.653Z,95132.00
2018-11-07T04:19:58.314Z,95134.00
2018-11-07T04:20:36.023Z,95139.00
2018-11-07T04:21:13.554Z,95136.00
2018-11-07T04:21:51.169Z,95136.00
2018-11-07T04:22:28.806Z,95137.00
2018-11-07T04:23:06.421Z,95136.00
2018-11-07T04:23:44.012Z,95142.00
2018-11-07T04:24:21.600Z,95141.00
2018-11-07T04:24:59.152Z,95137.00
2018-11-07T04:25:36.756Z,95139.00
2018-11-07T04:26:14.437Z,95142.00
2018-11-07T04:26:52.067Z,95135.00
2018-11-07T04:27:29.634Z,95135.00
2018-11-07T04:28:07.492Z,95137.00
2018-11-07T04:28:45.196Z,95137.00
2018-11-07T04:29:22.741Z,95136.00
2018-11-07T04:30:00.423Z,95140.00
2018-11-07T04:30:38.006Z,95139.00
2018-11-07T04:31:15.831Z,95137.00
2018-11-07T04:31:53.331Z,95135.00
2018-11-07T04:32:31.061Z,95136.00
2018-11-07T04:33:08.540Z,95136.00
2018-11-07T04:33:46.073Z,95133.00
2018-11-07T04:34:23.763Z,95139.00
2018-11-07T04:35:01.390Z,95134.00
2018-11-07T04:35:38.895Z,95131.00
2018-11-07T04:36:16.495Z,95134.00
2018-11-07T04:36:54.357Z,95132.00
2018-11-07T04:37:32.015Z,95133.00
2018-11-07T04:38:09.593Z,95128.00
2018-11-07T04:38:47.137Z,95132.00
2018-11-07T04:39:24.721Z,95129.00
2018-11-07T04:40:02.452Z,95129.00
2018-11-07T04:40:40.039Z,95128.00
2018-11-07T04:41:17.504Z,95125.00
2018-11-07T04:41:55.070Z,95130.00
2018-11-07T04:42:32.718Z,95128.00
2018-11-07T04:43:10.284Z,95126.00
2018-11-07T04:43:47.866Z,95132.00
2018-11-07T04:44:25.619Z,95129.00
2018-11-07T04:45:03.250Z,95126.00
2018-11-07T04:45:40.867Z,95130.00
2018-11-07T04:46:18.494Z,95132.00
2018-11-07T04:46:56.189Z,95131.00
2018-11-07T04:47:34.002Z,95128.00
2018-11-07T04:48:11.790Z,95135.00
2018-11-07T04:48:49.417Z,95127.00
2018-11-07T04:49:27.145Z,95130.00
2018-11-07T04:50:04.750Z,95129.00
2018-11-07T04:50:42.347Z,95135.00
2018-11-07T04:51:19.877Z,95134.00
2018-11-07T04:51:57.416Z,95132.00
2018-11-07T04:52:35.199Z,95131.00
2018-11-07T04:53:12.899Z,95129.00
2018-11-07T04:53:50.331Z,95130.00
2018-11-07T04:54:27.930Z,95133.00
2018-11-07T04:55:05.533Z,95130.00
2018-11-07T04:55:42.959Z,95128.00
2018-11-07T04:56:20.591Z,95127.00
2018-11-07T04:56:58.254Z,95126.00
2018-11-07T04:58:18.612Z,95125.00
2018-11-07T04:58:56.437Z,95126.00
2018-11-07T04:59:33.754Z,95128.00
2018-11-07T05:00:11.433Z,95127.00
2018-11-07T05:00:48.949Z,95133.00
2018-11-07T05:01:26.663Z,95132.00
2018-11-07T05:02:04.273Z,95133.00
2018-11-07T05:03:25.344Z,95127.00
2018-11-07T05:04:02.999Z,95129.00
2018-11-07T05:04:40.520Z,95127.00
2018-11-07T05:05:18.259Z,95124.00
2018-11-07T05:05:55.840Z,95115.00
2018-11-07T05:06:33.320Z,95122.00
2018-11-07T05:07:11.042Z,95117.00
2018-11-07T05:07:48.763Z,95115.00
2018-11-07T05:08:26.276Z,95118.00
2018-11-07T05:09:03.849Z,95116.00
2018-11-07T05:09:41.430Z,95113.00
2018-11-07T05:10:19.064Z,95114.00
2018-11-07T05:10:56.766Z,95116.00
2018-11-07T05:11:34.251Z,95116.00
2018-11-07T05:12:11.959Z,95117.00
2018-11-07T05:12:49.543Z,95116.00
2018-11-07T05:13:27.164Z,95115.00
2018-11-07T05:14:04.809Z,95116.00
2018-11-07T05:14:42.277Z,95118.00
2018-11-07T05:15:19.903Z,95117.00
2018-11-07T05:15:57.478Z,95119.00
2018-11-07T05:16:35.166Z,95121.00
2018-11-07T05:17:12.938Z,95123.00
2018-11-07T05:17:50.706Z,95121.00
2018-11-07T05:18:28.253Z,95123.00
2018-11-07T05:19:05.754Z,95120.00
2018-11-07T05:19:43.469Z,95122.00
2018-11-07T05:20:21.263Z,95120.00
2018-11-07T05:20:58.980Z,95117.00
2018-11-07T05:21:36.712Z,95122.00
2018-11-07T05:22:14.429Z,95119.00
2018-11-07T05:22:52.026Z,95115.00
2018-11-07T05:23:29.566Z,95116.00
2018-11-07T05:24:07.234Z,95118.00
2018-11-07T05:24:45.022Z,95118.00
2018-11-07T05:25:22.746Z,95120.00
2018-11-07T05:26:00.432Z,95117.00
2018-11-07T05:26:37.912Z,95115.00
2018-11-07T05:27:15.722Z,95116.00
2018-11-07T05:27:53.418Z,95116.00
2018-11-07T05:28:31.030Z,95110.00
2018-11-07T05:29:08.569Z,95114.00
2018-11-07T05:29:46.137Z,95110.00
2018-11-07T05:30:23.768Z,95115.00
2018-11-07T05:31:01.290Z,95114.00
2018-11-07T05:31:38.853Z,95116.00
2018-11-07T05:32:16.607Z,95117.00
2018-11-07T05:32:54.191Z,95120.00
2018-11-07T05:33:31.807Z,95121.00
2018-11-07T05:34:09.422Z,95121.00
2018-11-07T05:34:47.245Z,95123.00
2018-11-07T05:35:24.785Z,95123.00
2018-11-07T05:36:02.353Z,95128.00
2018-11-07T05:36:40.017Z,95129.00
2018-11-07T05:37:17.522Z,95129.00
2018-11-07T05:37:55.066Z,95130.00
2018-11-07T05:38:32.737Z,95133.00
2018-11-07T05:39:10.231Z,95127.00
2018-11-07T05:39:47.813Z,95129.00
2018-11-07T05:40:25.331Z,95129.00
2018-11-07T05:41:03.010Z,95124.00
2018-11-07T05:41:40.530Z,95127.00
2018-11-07T05:42:18.075Z,95127.00
2018-11-07T05:42:55.537Z,95122.00
2018-11-07T05:43:33.155Z,95123.00
2018-11-07T05:44:10.679Z,95124.00
2018-11-07T05:44:48.341Z,95124.00
2018-11-07T05:45:25.849Z,95127.00
2018-11-07T05:46:03.383Z,95128.00
2018-11-07T05:46:41.043Z,95125.00
2018-11-07T05:47:18.738Z,95128.00
2018-11-07T05:47:56.446Z,95128.00
2018-11-07T05:48:33.997Z,95124.00
2018-11-07T05:49:11.480Z,95128.00
2018-11-07T05:49:49.049Z,95131.00
2018-11-07T05:50:26.722Z,95129.00
2018-11-07T05:51:04.201Z,95127.00
2018-11-07T05:51:41.837Z,95133.00
2018-11-07T05:52:19.585Z,95135.00
2018-11-07T05:52:56.952Z,95133.00
2018-11-07T05:53:34.546Z,95134.00
2018-11-07T05:54:12.104Z,95135.00
2018-11-07T05:54:49.636Z,95137.00
2018-11-07T05:55:27.209Z,95134.00
2018-11-07T05:56:04.826Z,95134.00
2018-11-07T05:56:42.439Z,95132.00
2018-11-07T05:57:19.986Z,95135.00
2018-11-07T05:57:57.410Z,95133.00
2018-11-07T05:58:34.935Z,95131.00
2018-11-07T05:59:12.603Z,95133.00
2018-11-07T05:59:50.153Z,95133.00
2018-11-07T06:00:27.831Z,95128.00
2018-11-07T06:01:05.506Z,95128.00
2018-11-07T06:01:43.236Z,95124.00
2018-11-07T06:02:20.884Z,95126.00
2018-11-07T06:02:58.487Z,95128.00
2018-11-07T06:03:36.126Z,95124.00
2018-11-07T06:04:13.800Z,95123.00
2018-11-07T06:04:51.334Z,95122.00
2018-11-07T06:05:28.951Z,95125.00
2018-11-07T06:06:06.644Z,95128.00
2018-11-07T06:06:44.304Z,95131.00
2018-11-07T06:07:21.858Z,95133.00
2018-11-07T06:07:59.582Z,95129.00
2018-11-07T06:08:37.277Z,95134.00
2018-11-07T06:09:15.283Z,95134.00
2018-11-07T06:09:52.725Z,95134.00
2018-11-07T06:10:30.270Z,95138.00
2018-11-07T06:11:08.058Z,95139.00
2018-11-07T06:11:45.665Z,95139.00
2018-11-07T06:12:23.433Z,95140.00
2018-11-07T06:13:01.021Z,95137.00
2018-11-07T06:13:38.557Z,95138.00
2018-11-07T06:14:16.138Z,95134.00
2018-11-07T06:14:53.692Z,95137.00
2018-11-07T06:15:31.347Z,95130.00
2018-11-07T06:16:08.791Z,95133.00
2018-11-07T06:16:46.379Z,95130.00
2018-11-07T06:17:23.996Z,95129.00
2018-11-07T06:18:01.620Z,95130.00
2018-11-07T06:18:39.361Z,95130.00
2018-11-07T06:19:16.815Z,95135.00
2018-11-07T06:19:54.339Z,95134.00
2018-11-07T06:20:31.959Z,95135.00
2018-11-07T06:21:09.470Z,95132.00
2018-11-07T06:21:46.943Z,95138.00
2018-11-07T06:22:24.602Z,95135.00
2018-11-07T06:23:02.291Z,95133.00
2018-11-07T06:23:40.032Z,95140.00
2018-11-07T06:24:17.766Z,95141.00
2018-11-07T06:24:55.287Z,95138.00
2018-11-07T06:25:32.807Z,95145.00
2018-11-07T06:26:10.219Z,95140.00
2018-11-07T06:26:47.746Z,95141.00
2018-11-07T06:27:25.358Z,95143.00
2018-11-07T06:28:02.886Z,95144.00
2018-11-07T06:28:40.477Z,95140.00
2018-11-07T06:29:18.159Z,95147.00
2018-11-07T06:29:55.707Z,95147.00
2018-11-07T06:30:33.274Z,95143.00
2018-11-07T06:31:10.781Z,95143.00
2018-11-07T06:31:48.403Z,95148.00
2018-11-07T06:32:25.995Z,95146.00
2018-11-07T06:33:03.640Z,95146.00
2018-11-07T06:33:41.331Z,95146.00
2018-11-07T06:34:19.048Z,95144.00
2018-11-07T06:34:56.586Z,95140.00
2018-11-07T06:35:34.214Z,95139.00
2018-11-07T06:36:11.694Z,95143.00
2018-11-07T06:36:49.367Z,95136.00
2018-11-07T06:37:27.055Z,95140.00
2018-11-07T06:38:04.629Z,95134.00
2018-11-07T06:38:42.064Z,95135.00
2018-11-07T06:39:19.675Z,95138.00
2018-11-07T06:39:57.346Z,95132.00
2018-11-07T06:40:34.822Z,95138.00
2018-11-07T06:41:12.383Z,95132.00
2018-11-07T06:41:50.008Z,95141.00
2018-11-07T06:42:27.596Z,95143.00
2018-11-07T06:43:05.251Z,95136.00
2018-11-07T06:43:42.816Z,95139.00
2018-11-07T06:44:20.536Z,95141.00
2018-11-07T06:44:58.350Z,95137.00
2018-11-07T06:45:36.023Z,95137.00
2018-11-07T06:46:13.911Z,95139.00
2018-11-07T06:46:51.596Z,95140.00
2018-11-07T06:47:29.294Z,95139.00
2018-11-07T06:48:06.886Z,95140.00
2018-11-07T06:48:44.591Z,95143.00
2018-11-07T06:49:22.235Z,95147.00
2018-11-07T06:49:59.755Z,95144.00
2018-11-07T06:50:37.318Z,95148.00
2018-11-07T06:51:14.822Z,95145.00
2018-11-07T06:51:52.245Z,95150.00
2018-11-07T06:52:29.711Z,95150.00
2018-11-07T06:53:07.411Z,95151.00
2018-11-07T06:53:44.874Z,95140.00
2018-11-07T06:54:22.486Z,95157.00
2018-11-07T06:55:00.497Z,95161.00
2018-11-07T06:55:37.910Z,95162.00
2018-11-07T06:56:15.665Z,95160.00
2018-11-07T06:56:53.418Z,95154.00
2018-11-07T06:57:30.945Z,95161.00
2018-11-07T06:58:08.738Z,95161.00
2018-11-07T06:58:46.252Z,95158.00
2018-11-07T06:59:23.793Z,95160.00
2018-11-07T07:00:01.385Z,95157.00
2018-11-07T07:00:39.038Z,95158.00
2018-11-07T07:01:16.768Z,95155.00
2018-11-07T07:01:54.362Z,95150.00
2018-11-07T07:02:32.079Z,95154.00
2018-11-07T07:03:09.613Z,95150.00
2018-11-07T07:03:47.219Z,95150.00
2018-11-07T07:04:24.960Z,95155.00
2018-11-07T07:05:02.560Z,95148.00
2018-11-07T07:05:40.244Z,95153.00
2018-11-07T07:06:17.820Z,95148.00
2018-11-07T07:06:55.582Z,95155.00
2018-11-07T07:07:33.398Z,95153.00
2018-11-07T07:08:10.955Z,95152.00
2018-11-07T07:08:48.533Z,95150.00
2018-11-07T07:09:26.137Z,95151.00
2018-11-07T07:10:03.575Z,95155.00
2018-11-07T07:10:41.370Z,95152.00
2018-11-07T07:11:18.970Z,95147.00
2018-11-07T07:11:56.536Z,95142.00
2018-11-07T07:12:34.114Z,95141.00
2018-11-07T07:13:11.763Z,95138.00
2018-11-07T07:13:49.467Z,95145.00
2018-11-07T07:14:26.953Z,95138.00
2018-11-07T07:15:04.764Z,95142.00
2018-11-07T07:15:42.249Z,95144.00
2018-11-07T07:16:20.127Z,95141.00
2018-11-07T07:16:57.820Z,95145.00
2018-11-07T07:17:35.507Z,95146.00
2018-11-07T07:18:13.092Z,95151.00
2018-11-07T07:18:50.625Z,95151.00
2018-11-07T07:19:28.173Z,95150.00
2018-11-07T07:20:05.793Z,95151.00
2018-11-07T07:20:43.375Z,95152.00
2018-11-07T07:21:20.909Z,95154.00
2018-11-07T07:21:58.391Z,95152.00
2018-11-07T07:22:35.957Z,95152.00
2018-11-07T07:23:13.521Z,95155.00
2018-11-07T07:23:51.204Z,95156.00
2018-11-07T07:24:28.804Z,95156.00
2018-11-07T07:25:06.494Z,95158.00